ENST/SSJ METAR and TAF weather

Enter ICAO airport designator
Station Type Date Time Source
ENST METAR 2019/10/18 06:50 UTC NOAA

ENST 180650Z 06005KT 9999 -RA FEW035 BKN050 05/02 Q1004 RMK WIND 300FT 06007KT


Station Type Date Time Source
ENST Decoded METAR 2019/10/18 06:50 UTC NOAA

Sandnessjoen / Stokka, Norway (ENST) 65-58N 012-28E 17M
Oct 18, 2019 - 02:50 AM EDT / 2019.10.18 0650 UTC
Wind: from the ENE (060 degrees) at 6 MPH (5 KT):0
Visibility: greater than 7 mile(s):0
Sky conditions: mostly cloudy
Weather: light rain
Temperature: 41 F (5 C)
Dew Point: 35 F (2 C)
Relative Humidity: 80%
Pressure (altimeter): 29.65 in. Hg (1004 hPa)
ob: ENST 180650Z 06005KT 9999 -RA FEW035 BKN050 05/02 Q1004 RMK WIND 300FT 06007KT
cycle: 7

Station Type Date Time Source
ENST TAF UTC NOAA

Error!

Example: see airport list